sensor_id;sensor_type;location;lat;lon;timestamp;pressure;altitude;pressure_sealevel;temperature;humidity
60170;BME280;46042;49.444;6.862;2023-03-20T00:02:04;98918.72;;;7.34;100.00
60170;BME280;46042;49.444;6.862;2023-03-20T00:04:31;98921.50;;;7.31;100.00
60170;BME280;46042;49.444;6.862;2023-03-20T00:06:57;98927.66;;;7.30;100.00
60170;BME280;46042;49.444;6.862;2023-03-20T00:09:24;98922.03;;;7.20;100.00
60170;BME280;46042;49.444;6.862;2023-03-20T00:11:53;98921.97;;;7.21;100.00
60170;BME280;46042;49.444;6.862;2023-03-20T00:14:21;98919.34;;;7.21;100.00
60170;BME280;46042;49.444;6.862;2023-03-20T00:16:50;98912.16;;;7.25;100.00
60170;BME280;46042;49.444;6.862;2023-03-20T00:19:18;98913.63;;;7.31;100.00
60170;BME280;46042;49.444;6.862;2023-03-20T00:21:46;98917.81;;;7.35;100.00
60170;BME280;46042;49.444;6.862;2023-03-20T00:24:14;98916.09;;;7.34;100.00
60170;BME280;46042;49.444;6.862;2023-03-20T00:26:42;98914.41;;;7.33;100.00
60170;BME280;46042;49.444;6.862;2023-03-20T00:29:27;98912.66;;;7.33;100.00
60170;BME280;46042;49.444;6.862;2023-03-20T00:31:57;98922.22;;;7.34;100.00
60170;BME280;46042;49.444;6.862;2023-03-20T00:34:26;98919.50;;;7.36;100.00
60170;BME280;46042;49.444;6.862;2023-03-20T00:36:55;98916.09;;;7.34;100.00
60170;BME280;46042;49.444;6.862;2023-03-20T00:39:23;98923.03;;;7.35;100.00
60170;BME280;46042;49.444;6.862;2023-03-20T00:41:55;98922.81;;;7.39;100.00
60170;BME280;46042;49.444;6.862;2023-03-20T00:44:35;98926.31;;;7.40;100.00
60170;BME280;46042;49.444;6.862;2023-03-20T00:47:14;98925.38;;;7.41;100.00
60170;BME280;46042;49.444;6.862;2023-03-20T00:49:42;98926.94;;;7.45;100.00
60170;BME280;46042;49.444;6.862;2023-03-20T00:52:11;98921.75;;;7.44;100.00
60170;BME280;46042;49.444;6.862;2023-03-20T00:54:40;98921.84;;;7.42;100.00
60170;BME280;46042;49.444;6.862;2023-03-20T00:57:12;98924.47;;;7.42;100.00
60170;BME280;46042;49.444;6.862;2023-03-20T01:02:20;98936.16;;;7.35;100.00
60170;BME280;46042;49.444;6.862;2023-03-20T01:04:47;98931.06;;;7.32;100.00
60170;BME280;46042;49.444;6.862;2023-03-20T01:07:14;98946.56;;;7.36;100.00
60170;BME280;46042;49.444;6.862;2023-03-20T01:09:41;98949.34;;;7.33;100.00
60170;BME280;46042;49.444;6.862;2023-03-20T01:12:10;98949.97;;;7.38;100.00
60170;BME280;46042;49.444;6.862;2023-03-20T01:14:37;98957.00;;;7.38;100.00
60170;BME280;46042;49.444;6.862;2023-03-20T01:17:04;98952.72;;;7.35;100.00
60170;BME280;46042;49.444;6.862;2023-03-20T01:19:31;98953.72;;;7.33;100.00
60170;BME280;46042;49.444;6.862;2023-03-20T01:21:57;98958.97;;;7.33;100.00
60170;BME280;46042;49.444;6.862;2023-03-20T01:24:24;98961.66;;;7.31;100.00
60170;BME280;46042;49.444;6.862;2023-03-20T01:26:51;98966.81;;;7.33;100.00
60170;BME280;46042;49.444;6.862;2023-03-20T01:29:22;98967.53;;;7.36;100.00
60170;BME280;46042;49.444;6.862;2023-03-20T01:31:51;98973.63;;;7.37;100.00
60170;BME280;46042;49.444;6.862;2023-03-20T01:34:18;98976.16;;;7.38;100.00
60170;BME280;46042;49.444;6.862;2023-03-20T01:36:50;98971.69;;;7.40;100.00
60170;BME280;46042;49.444;6.862;2023-03-20T01:39:25;98979.56;;;7.40;100.00
60170;BME280;46042;49.444;6.862;2023-03-20T01:41:54;98974.16;;;7.44;100.00
60170;BME280;46042;49.444;6.862;2023-03-20T01:44:23;98982.97;;;7.43;100.00
60170;BME280;46042;49.444;6.862;2023-03-20T01:46:51;98974.13;;;7.45;100.00
60170;BME280;46042;49.444;6.862;2023-03-20T01:51:47;98983.75;;;7.45;100.00
60170;BME280;46042;49.444;6.862;2023-03-20T01:54:23;98982.75;;;7.47;100.00
60170;BME280;46042;49.444;6.862;2023-03-20T01:56:59;98980.50;;;7.39;100.00
60170;BME280;46042;49.444;6.862;2023-03-20T01:59:39;98984.75;;;7.42;100.00
60170;BME280;46042;49.444;6.862;2023-03-20T02:02:08;98993.44;;;7.43;100.00
60170;BME280;46042;49.444;6.862;2023-03-20T02:04:38;98986.81;;;7.35;100.00
60170;BME280;46042;49.444;6.862;2023-03-20T02:07:07;98990.72;;;7.26;100.00
60170;BME280;46042;49.444;6.862;2023-03-20T02:09:36;98983.69;;;7.27;100.00
60170;BME280;46042;49.444;6.862;2023-03-20T02:12:02;98981.97;;;7.26;100.00
60170;BME280;46042;49.444;6.862;2023-03-20T02:14:31;98985.47;;;7.26;100.00
60170;BME280;46042;49.444;6.862;2023-03-20T02:16:58;98983.34;;;7.16;100.00
60170;BME280;46042;49.444;6.862;2023-03-20T02:19:42;98978.69;;;7.22;100.00
60170;BME280;46042;49.444;6.862;2023-03-20T02:28:19;98961.22;;;7.40;100.00
60170;BME280;46042;49.444;6.862;2023-03-20T02:39:14;98958.31;;;7.47;100.00
60170;BME280;46042;49.444;6.862;2023-03-20T02:47:03;98958.69;;;7.39;100.00
60170;BME280;46042;49.444;6.862;2023-03-20T02:52:31;98950.47;;;7.47;100.00
60170;BME280;46042;49.444;6.862;2023-03-20T02:55:12;98949.53;;;7.48;100.00
60170;BME280;46042;49.444;6.862;2023-03-20T02:57:58;98956.38;;;7.50;100.00
60170;BME280;46042;49.444;6.862;2023-03-20T03:00:31;98950.38;;;7.48;100.00
60170;BME280;46042;49.444;6.862;2023-03-20T03:03:13;98959.09;;;7.49;100.00
60170;BME280;46042;49.444;6.862;2023-03-20T03:06:05;98961.50;;;7.53;100.00
60170;BME280;46042;49.444;6.862;2023-03-20T03:08:35;98962.28;;;7.56;100.00
60170;BME280;46042;49.444;6.862;2023-03-20T03:11:05;98966.66;;;7.55;100.00
60170;BME280;46042;49.444;6.862;2023-03-20T03:13:39;98973.69;;;7.54;100.00
60170;BME280;46042;49.444;6.862;2023-03-20T03:16:13;98975.44;;;7.54;100.00
60170;BME280;46042;49.444;6.862;2023-03-20T03:18:42;98985.94;;;7.54;100.00
60170;BME280;46042;49.444;6.862;2023-03-20T03:21:11;98979.84;;;7.53;100.00
60170;BME280;46042;49.444;6.862;2023-03-20T03:26:23;98950.38;;;7.48;100.00
60170;BME280;46042;49.444;6.862;2023-03-20T03:28:56;98951.91;;;7.52;100.00
60170;BME280;46042;49.444;6.862;2023-03-20T03:31:25;98958.78;;;7.55;100.00
60170;BME280;46042;49.444;6.862;2023-03-20T03:33:55;98962.41;;;7.52;100.00
60170;BME280;46042;49.444;6.862;2023-03-20T03:39:23;98968.31;;;7.38;100.00
60170;BME280;46042;49.444;6.862;2023-03-20T03:42:04;98979.94;;;7.33;100.00
60170;BME280;46042;49.444;6.862;2023-03-20T03:45:04;98968.53;;;7.34;100.00
60170;BME280;46042;49.444;6.862;2023-03-20T03:47:44;98959.53;;;7.39;100.00
60170;BME280;46042;49.444;6.862;2023-03-20T03:53:03;98982.19;;;7.40;100.00
60170;BME280;46042;49.444;6.862;2023-03-20T03:55:36;98976.72;;;7.45;100.00
60170;BME280;46042;49.444;6.862;2023-03-20T03:58:10;98973.41;;;7.42;100.00
60170;BME280;46042;49.444;6.862;2023-03-20T04:00:40;98973.50;;;7.40;100.00
60170;BME280;46042;49.444;6.862;2023-03-20T04:03:09;98980.34;;;7.43;100.00
60170;BME280;46042;49.444;6.862;2023-03-20T04:05:40;98981.16;;;7.45;100.00
60170;BME280;46042;49.444;6.862;2023-03-20T04:08:08;98992.66;;;7.40;100.00
60170;BME280;46042;49.444;6.862;2023-03-20T04:10:34;98988.50;;;7.36;100.00
60170;BME280;46042;49.444;6.862;2023-03-20T04:13:01;98975.56;;;7.33;100.00
60170;BME280;46042;49.444;6.862;2023-03-20T04:15:28;98966.75;;;7.34;100.00
60170;BME280;46042;49.444;6.862;2023-03-20T04:17:54;98975.47;;;7.35;100.00
60170;BME280;46042;49.444;6.862;2023-03-20T04:20:21;98971.78;;;7.39;100.00
60170;BME280;46042;49.444;6.862;2023-03-20T04:22:48;98974.41;;;7.39;100.00
60170;BME280;46042;49.444;6.862;2023-03-20T04:25:21;98972.47;;;7.43;100.00
60170;BME280;46042;49.444;6.862;2023-03-20T04:27:48;98975.25;;;7.39;100.00
60170;BME280;46042;49.444;6.862;2023-03-20T04:30:15;98983.25;;;7.36;100.00
60170;BME280;46042;49.444;6.862;2023-03-20T04:32:42;98994.03;;;7.30;100.00
60170;BME280;46042;49.444;6.862;2023-03-20T04:35:09;98987.63;;;7.36;100.00
60170;BME280;46042;49.444;6.862;2023-03-20T04:37:35;98983.97;;;7.40;100.00
60170;BME280;46042;49.444;6.862;2023-03-20T04:40:03;98981.25;;;7.42;100.00
60170;BME280;46042;49.444;6.862;2023-03-20T04:42:30;98981.34;;;7.40;100.00
60170;BME280;46042;49.444;6.862;2023-03-20T04:44:56;98999.00;;;7.36;100.00
60170;BME280;46042;49.444;6.862;2023-03-20T04:47:23;98995.66;;;7.33;100.00
60170;BME280;46042;49.444;6.862;2023-03-20T04:49:49;99005.31;;;7.32;100.00
60170;BME280;46042;49.444;6.862;2023-03-20T04:52:16;99012.16;;;7.35;100.00
60170;BME280;46042;49.444;6.862;2023-03-20T04:54:42;99010.34;;;7.37;100.00
60170;BME280;46042;49.444;6.862;2023-03-20T04:57:09;99016.47;;;7.36;100.00
60170;BME280;46042;49.444;6.862;2023-03-20T04:59:36;99009.63;;;7.33;100.00
60170;BME280;46042;49.444;6.862;2023-03-20T05:02:03;99016.00;;;7.28;100.00
60170;BME280;46042;49.444;6.862;2023-03-20T05:04:29;99022.22;;;7.25;100.00
60170;BME280;46042;49.444;6.862;2023-03-20T05:06:56;99017.75;;;7.27;100.00
60170;BME280;46042;49.444;6.862;2023-03-20T05:09:23;99021.28;;;7.26;100.00
60170;BME280;46042;49.444;6.862;2023-03-20T05:11:49;99024.78;;;7.26;100.00
60170;BME280;46042;49.444;6.862;2023-03-20T05:14:16;99036.94;;;7.28;100.00
60170;BME280;46042;49.444;6.862;2023-03-20T05:16:43;99036.03;;;7.29;100.00
60170;BME280;46042;49.444;6.862;2023-03-20T05:19:10;99043.75;;;7.32;100.00
60170;BME280;46042;49.444;6.862;2023-03-20T05:21:36;99041.47;;;7.24;100.00
60170;BME280;46042;49.444;6.862;2023-03-20T05:24:03;99036.19;;;7.25;100.00
60170;BME280;46042;49.444;6.862;2023-03-20T05:26:30;99034.91;;;7.34;100.00
60170;BME280;46042;49.444;6.862;2023-03-20T05:28:57;99034.47;;;7.24;100.00
60170;BME280;46042;49.444;6.862;2023-03-20T05:31:24;99027.69;;;7.20;100.00
60170;BME280;46042;49.444;6.862;2023-03-20T05:33:51;99025.06;;;7.20;100.00
60170;BME280;46042;49.444;6.862;2023-03-20T05:36:17;99026.06;;;7.18;100.00
60170;BME280;46042;49.444;6.862;2023-03-20T05:38:44;99032.25;;;7.15;100.00
60170;BME280;46042;49.444;6.862;2023-03-20T05:41:10;99037.31;;;7.20;100.00
60170;BME280;46042;49.444;6.862;2023-03-20T05:43:37;99039.00;;;7.21;100.00
60170;BME280;46042;49.444;6.862;2023-03-20T05:46:04;99042.53;;;7.20;100.00
60170;BME280;46042;49.444;6.862;2023-03-20T05:48:31;99043.41;;;7.20;100.00
60170;BME280;46042;49.444;6.862;2023-03-20T05:50:57;99049.84;;;7.13;100.00
60170;BME280;46042;49.444;6.862;2023-03-20T05:53:24;99056.78;;;7.14;100.00
60170;BME280;46042;49.444;6.862;2023-03-20T05:55:51;99051.47;;;7.16;100.00
60170;BME280;46042;49.444;6.862;2023-03-20T05:58:17;99053.94;;;7.19;100.00
60170;BME280;46042;49.444;6.862;2023-03-20T06:00:44;99053.31;;;7.14;100.00
60170;BME280;46042;49.444;6.862;2023-03-20T06:03:11;99057.78;;;7.11;100.00
60170;BME280;46042;49.444;6.862;2023-03-20T06:05:37;99058.81;;;7.07;100.00
60170;BME280;46042;49.444;6.862;2023-03-20T06:08:04;99050.31;;;7.02;100.00
60170;BME280;46042;49.444;6.862;2023-03-20T06:10:31;99050.47;;;6.99;100.00
60170;BME280;46042;49.444;6.862;2023-03-20T06:12:58;99050.59;;;6.96;100.00
60170;BME280;46042;49.444;6.862;2023-03-20T06:15:27;99050.38;;;7.01;100.00
60170;BME280;46042;49.444;6.862;2023-03-20T06:17:54;99044.94;;;7.05;100.00
60170;BME280;46042;49.444;6.862;2023-03-20T06:20:22;99047.84;;;6.99;100.00
60170;BME280;46042;49.444;6.862;2023-03-20T06:22:49;99049.25;;;7.06;100.00
60170;BME280;46042;49.444;6.862;2023-03-20T06:25:16;99047.56;;;7.05;100.00
60170;BME280;46042;49.444;6.862;2023-03-20T06:27:42;99058.47;;;6.96;100.00
60170;BME280;46042;49.444;6.862;2023-03-20T06:30:11;99053.84;;;7.01;100.00
60170;BME280;46042;49.444;6.862;2023-03-20T06:32:38;99058.22;;;7.01;100.00
60170;BME280;46042;49.444;6.862;2023-03-20T06:35:05;99063.22;;;7.07;100.00
60170;BME280;46042;49.444;6.862;2023-03-20T06:37:33;99063.06;;;7.10;100.00
60170;BME280;46042;49.444;6.862;2023-03-20T06:39:59;99069.44;;;7.04;100.00
60170;BME280;46042;49.444;6.862;2023-03-20T06:42:26;99063.03;;;7.11;100.00
60170;BME280;46042;49.444;6.862;2023-03-20T06:44:52;99065.28;;;7.19;100.00
60170;BME280;46042;49.444;6.862;2023-03-20T06:47:19;99071.44;;;7.18;100.00
60170;BME280;46042;49.444;6.862;2023-03-20T06:49:46;99069.97;;;7.13;100.00
60170;BME280;46042;49.444;6.862;2023-03-20T06:52:17;99083.16;;;7.30;100.00
60170;BME280;46042;49.444;6.862;2023-03-20T06:54:44;99086.34;;;7.37;100.00
60170;BME280;46042;49.444;6.862;2023-03-20T06:57:10;99079.75;;;7.28;100.00
60170;BME280;46042;49.444;6.862;2023-03-20T06:59:40;99087.03;;;7.40;100.00
60170;BME280;46042;49.444;6.862;2023-03-20T07:02:09;99087.53;;;7.49;100.00
60170;BME280;46042;49.444;6.862;2023-03-20T07:04:36;99081.94;;;7.37;100.00
60170;BME280;46042;49.444;6.862;2023-03-20T07:07:03;99089.78;;;7.37;100.00
60170;BME280;46042;49.444;6.862;2023-03-20T07:09:30;99084.00;;;7.50;100.00
60170;BME280;46042;49.444;6.862;2023-03-20T07:11:56;99095.84;;;7.59;100.00
60170;BME280;46042;49.444;6.862;2023-03-20T07:14:23;99086.75;;;7.66;100.00
60170;BME280;46042;49.444;6.862;2023-03-20T07:16:49;99083.97;;;7.69;100.00
60170;BME280;46042;49.444;6.862;2023-03-20T07:19:17;99089.50;;;7.63;100.00
60170;BME280;46042;49.444;6.862;2023-03-20T07:21:44;99093.22;;;7.59;100.00
60170;BME280;46042;49.444;6.862;2023-03-20T07:24:10;99094.69;;;7.45;100.00
60170;BME280;46042;49.444;6.862;2023-03-20T07:26:37;99095.91;;;7.38;100.00
60170;BME280;46042;49.444;6.862;2023-03-20T07:29:04;99092.38;;;7.18;100.00
60170;BME280;46042;49.444;6.862;2023-03-20T07:31:31;99086.31;;;7.18;100.00
60170;BME280;46042;49.444;6.862;2023-03-20T07:33:57;99089.56;;;7.23;100.00
60170;BME280;46042;49.444;6.862;2023-03-20T07:36:24;99103.25;;;7.30;100.00
60170;BME280;46042;49.444;6.862;2023-03-20T07:38:51;99097.94;;;7.31;100.00
60170;BME280;46042;49.444;6.862;2023-03-20T07:41:17;99104.25;;;7.46;100.00
60170;BME280;46042;49.444;6.862;2023-03-20T07:43:44;99108.28;;;7.73;100.00
60170;BME280;46042;49.444;6.862;2023-03-20T07:46:11;99112.41;;;7.97;100.00
60170;BME280;46042;49.444;6.862;2023-03-20T07:48:37;99097.94;;;8.43;100.00
60170;BME280;46042;49.444;6.862;2023-03-20T07:51:05;99096.22;;;8.61;100.00
60170;BME280;46042;49.444;6.862;2023-03-20T07:53:32;99092.00;;;8.92;100.00
60170;BME280;46042;49.444;6.862;2023-03-20T07:55:59;99096.47;;;9.08;100.00
60170;BME280;46042;49.444;6.862;2023-03-20T07:58:26;99098.56;;;9.01;100.00
60170;BME280;46042;49.444;6.862;2023-03-20T08:00:52;99103.97;;;8.80;100.00
60170;BME280;46042;49.444;6.862;2023-03-20T08:03:19;99110.50;;;8.73;100.00
60170;BME280;46042;49.444;6.862;2023-03-20T08:05:46;99114.97;;;8.53;100.00
60170;BME280;46042;49.444;6.862;2023-03-20T08:08:13;99114.50;;;8.63;100.00
60170;BME280;46042;49.444;6.862;2023-03-20T08:10:40;99113.72;;;8.61;100.00
60170;BME280;46042;49.444;6.862;2023-03-20T08:13:07;99121.22;;;8.51;100.00
60170;BME280;46042;49.444;6.862;2023-03-20T08:15:33;99118.16;;;8.60;100.00
60170;BME280;46042;49.444;6.862;2023-03-20T08:18:00;99117.50;;;8.73;100.00
60170;BME280;46042;49.444;6.862;2023-03-20T08:20:27;99124.81;;;8.31;100.00
60170;BME280;46042;49.444;6.862;2023-03-20T08:22:54;99132.44;;;8.35;100.00
60170;BME280;46042;49.444;6.862;2023-03-20T08:25:23;99133.31;;;8.36;100.00
60170;BME280;46042;49.444;6.862;2023-03-20T08:27:50;99141.00;;;8.21;100.00
60170;BME280;46042;49.444;6.862;2023-03-20T08:30:17;99140.19;;;7.82;100.00
60170;BME280;46042;49.444;6.862;2023-03-20T08:32:43;99156.03;;;8.18;100.00
60170;BME280;46042;49.444;6.862;2023-03-20T08:35:10;99150.94;;;8.15;100.00
60170;BME280;46042;49.444;6.862;2023-03-20T08:37:57;99156.84;;;8.37;100.00
60170;BME280;46042;49.444;6.862;2023-03-20T08:40:23;99145.28;;;8.42;100.00
60170;BME280;46042;49.444;6.862;2023-03-20T08:42:51;99147.03;;;8.41;100.00
60170;BME280;46042;49.444;6.862;2023-03-20T08:45:17;99147.41;;;8.52;100.00
60170;BME280;46042;49.444;6.862;2023-03-20T08:47:47;99150.88;;;8.53;100.00
60170;BME280;46042;49.444;6.862;2023-03-20T08:50:14;99148.25;;;8.53;100.00
60170;BME280;46042;49.444;6.862;2023-03-20T08:52:41;99167.97;;;8.43;100.00
60170;BME280;46042;49.444;6.862;2023-03-20T08:55:10;99167.00;;;8.63;100.00
60170;BME280;46042;49.444;6.862;2023-03-20T08:57:37;99161.09;;;8.77;100.00
60170;BME280;46042;49.444;6.862;2023-03-20T09:00:05;99155.09;;;9.26;100.00
60170;BME280;46042;49.444;6.862;2023-03-20T09:02:32;99153.00;;;9.99;100.00
60170;BME280;46042;49.444;6.862;2023-03-20T09:04:59;99146.09;;;9.30;95.32
60170;BME280;46042;49.444;6.862;2023-03-20T09:07:26;99149.75;;;10.42;100.00
60170;BME280;46042;49.444;6.862;2023-03-20T09:09:53;99150.56;;;11.34;100.00
60170;BME280;46042;49.444;6.862;2023-03-20T09:12:20;99151.84;;;11.70;90.04
60170;BME280;46042;49.444;6.862;2023-03-20T09:14:47;99159.09;;;11.52;87.29
60170;BME280;46042;49.444;6.862;2023-03-20T09:17:13;99167.69;;;11.41;88.82
60170;BME280;46042;49.444;6.862;2023-03-20T09:19:41;99163.88;;;11.02;85.11
60170;BME280;46042;49.444;6.862;2023-03-20T09:22:14;99174.66;;;10.82;84.79
60170;BME280;46042;49.444;6.862;2023-03-20T09:24:40;99172.53;;;11.04;87.13
60170;BME280;46042;49.444;6.862;2023-03-20T09:27:07;99184.50;;;10.64;86.54
60170;BME280;46042;49.444;6.862;2023-03-20T09:29:34;99182.38;;;10.23;89.65
60170;BME280;46042;49.444;6.862;2023-03-20T09:32:01;99184.31;;;10.03;85.87
60170;BME280;46042;49.444;6.862;2023-03-20T09:34:27;99176.59;;;10.00;88.79
60170;BME280;46042;49.444;6.862;2023-03-20T09:36:54;99189.84;;;10.15;90.19
60170;BME280;46042;49.444;6.862;2023-03-20T09:39:21;99190.25;;;9.91;87.78
60170;BME280;46042;49.444;6.862;2023-03-20T09:41:49;99190.25;;;9.75;87.72
60170;BME280;46042;49.444;6.862;2023-03-20T09:52:34;99192.28;;;10.66;86.82
60170;BME280;46042;49.444;6.862;2023-03-20T09:55:19;99191.66;;;9.64;83.11
60170;BME280;46042;49.444;6.862;2023-03-20T09:58:01;99188.31;;;9.78;85.09
60170;BME280;46042;49.444;6.862;2023-03-20T10:00:30;99186.69;;;9.76;87.05
60170;BME280;46042;49.444;6.862;2023-03-20T10:03:04;99188.31;;;9.94;91.27
60170;BME280;46042;49.444;6.862;2023-03-20T10:06:17;99181.09;;;10.30;89.39
60170;BME280;46042;49.444;6.862;2023-03-20T10:08:21;99192.66;;;10.12;85.77
60170;BME280;46042;49.444;6.862;2023-03-20T10:11:26;99187.50;;;10.42;87.08
60170;BME280;46042;49.444;6.862;2023-03-20T10:22:26;99187.47;;;10.58;79.13
60170;BME280;46042;49.444;6.862;2023-03-20T10:25:13;99185.00;;;11.45;82.17
60170;BME280;46042;49.444;6.862;2023-03-20T10:27:46;99181.63;;;11.58;77.27
60170;BME280;46042;49.444;6.862;2023-03-20T10:30:22;99177.09;;;11.45;74.45
60170;BME280;46042;49.444;6.862;2023-03-20T10:38:36;99180.16;;;10.63;75.45
60170;BME280;46042;49.444;6.862;2023-03-20T10:41:16;99183.22;;;10.39;74.56
60170;BME280;46042;49.444;6.862;2023-03-20T10:43:47;99186.28;;;10.00;77.16
60170;BME280;46042;49.444;6.862;2023-03-20T10:46:19;99187.06;;;10.80;76.01
60170;BME280;46042;49.444;6.862;2023-03-20T10:51:20;99184.47;;;11.55;71.17
60170;BME280;46042;49.444;6.862;2023-03-20T10:53:51;99180.25;;;10.30;71.23
60170;BME280;46042;49.444;6.862;2023-03-20T10:56:27;99174.00;;;10.79;76.43
60170;BME280;46042;49.444;6.862;2023-03-20T10:59:04;99176.34;;;11.43;73.17
60170;BME280;46042;49.444;6.862;2023-03-20T11:01:32;99167.97;;;11.65;71.56
60170;BME280;46042;49.444;6.862;2023-03-20T11:04:01;99169.66;;;11.81;74.20
60170;BME280;46042;49.444;6.862;2023-03-20T11:06:31;99175.59;;;11.99;76.37
60170;BME280;46042;49.444;6.862;2023-03-20T11:09:18;99170.38;;;10.96;65.61
60170;BME280;46042;49.444;6.862;2023-03-20T11:11:46;99169.25;;;11.15;71.86
60170;BME280;46042;49.444;6.862;2023-03-20T11:14:19;99165.00;;;11.12;69.35
60170;BME280;46042;49.444;6.862;2023-03-20T11:16:48;99160.50;;;11.29;69.80
60170;BME280;46042;49.444;6.862;2023-03-20T11:19:19;99162.50;;;11.54;69.27
60170;BME280;46042;49.444;6.862;2023-03-20T11:21:55;99159.00;;;11.24;69.81
60170;BME280;46042;49.444;6.862;2023-03-20T11:24:41;99160.72;;;11.84;73.05
60170;BME280;46042;49.444;6.862;2023-03-20T11:27:15;99158.34;;;12.35;64.40
60170;BME280;46042;49.444;6.862;2023-03-20T11:29:46;99160.03;;;12.09;63.62
60170;BME280;46042;49.444;6.862;2023-03-20T11:32:27;99161.84;;;11.50;68.14
60170;BME280;46042;49.444;6.862;2023-03-20T11:34:56;99156.13;;;11.58;68.42
60170;BME280;46042;49.444;6.862;2023-03-20T11:37:42;99154.53;;;11.98;69.51
60170;BME280;46042;49.444;6.862;2023-03-20T11:40:22;99160.25;;;11.48;64.06
60170;BME280;46042;49.444;6.862;2023-03-20T11:43:18;99165.91;;;11.42;66.67
60170;BME280;46042;49.444;6.862;2023-03-20T11:45:47;99158.91;;;11.70;70.29
60170;BME280;46042;49.444;6.862;2023-03-20T11:48:22;99157.28;;;12.38;68.99
60170;BME280;46042;49.444;6.862;2023-03-20T11:51:06;99151.16;;;12.37;66.24
60170;BME280;46042;49.444;6.862;2023-03-20T11:53:57;99156.41;;;12.52;67.26
60170;BME280;46042;49.444;6.862;2023-03-20T11:56:26;99149.03;;;12.30;63.66
60170;BME280;46042;49.444;6.862;2023-03-20T12:01:21;99153.34;;;11.60;63.82
60170;BME280;46042;49.444;6.862;2023-03-20T12:04:05;99146.28;;;10.72;66.92
60170;BME280;46042;49.444;6.862;2023-03-20T12:09:34;99149.22;;;10.35;66.02
60170;BME280;46042;49.444;6.862;2023-03-20T12:12:14;99147.81;;;10.29;71.11
60170;BME280;46042;49.444;6.862;2023-03-20T12:15:06;99142.19;;;10.35;70.19
60170;BME280;46042;49.444;6.862;2023-03-20T12:23:05;99130.19;;;11.36;71.03
60170;BME280;46042;49.444;6.862;2023-03-20T12:26:00;99129.81;;;11.42;66.76
60170;BME280;46042;49.444;6.862;2023-03-20T12:33:51;99122.75;;;12.14;68.16
60170;BME280;46042;49.444;6.862;2023-03-20T12:36:37;99121.41;;;11.79;63.57
60170;BME280;46042;49.444;6.862;2023-03-20T12:39:17;99124.91;;;11.65;67.78
60170;BME280;46042;49.444;6.862;2023-03-20T12:55:15;99107.22;;;10.64;63.84
60170;BME280;46042;49.444;6.862;2023-03-20T13:14:16;99102.09;;;10.46;69.02
60170;BME280;46042;49.444;6.862;2023-03-20T13:17:08;99098.13;;;10.70;66.34
60170;BME280;46042;49.444;6.862;2023-03-20T13:19:54;99091.06;;;10.70;68.22
60170;BME280;46042;49.444;6.862;2023-03-20T13:22:33;99090.28;;;10.68;68.73
60170;BME280;46042;49.444;6.862;2023-03-20T13:27:52;99084.22;;;11.11;68.84
60170;BME280;46042;49.444;6.862;2023-03-20T13:39:11;99077.25;;;11.10;67.94
60170;BME280;46042;49.444;6.862;2023-03-20T13:41:40;99074.25;;;11.31;68.77
60170;BME280;46042;49.444;6.862;2023-03-20T13:44:08;99080.28;;;11.04;65.39
60170;BME280;46042;49.444;6.862;2023-03-20T13:46:45;99073.88;;;11.08;67.88
60170;BME280;46042;49.444;6.862;2023-03-20T13:57:17;99068.59;;;11.22;69.21
60170;BME280;46042;49.444;6.862;2023-03-20T14:00:05;99062.38;;;11.09;65.27
60170;BME280;46042;49.444;6.862;2023-03-20T14:05:20;99057.69;;;11.00;68.46
60170;BME280;46042;49.444;6.862;2023-03-20T14:07:50;99058.78;;;11.24;66.47
60170;BME280;46042;49.444;6.862;2023-03-20T14:15:14;99046.34;;;11.41;66.04
60170;BME280;46042;49.444;6.862;2023-03-20T14:17:46;99052.47;;;11.56;65.20
60170;BME280;46042;49.444;6.862;2023-03-20T14:20:28;99040.81;;;11.73;67.12
60170;BME280;46042;49.444;6.862;2023-03-20T14:22:56;99034.00;;;11.84;66.41
60170;BME280;46042;49.444;6.862;2023-03-20T14:25:23;99030.09;;;11.89;66.86
60170;BME280;46042;49.444;6.862;2023-03-20T14:27:56;99033.38;;;11.65;64.61
60170;BME280;46042;49.444;6.862;2023-03-20T14:33:00;99025.78;;;11.46;65.30
60170;BME280;46042;49.444;6.862;2023-03-20T14:35:36;99023.94;;;11.48;65.75
60170;BME280;46042;49.444;6.862;2023-03-20T14:38:13;99027.50;;;11.47;65.77
60170;BME280;46042;49.444;6.862;2023-03-20T14:41:08;99029.78;;;11.24;60.84
60170;BME280;46042;49.444;6.862;2023-03-20T14:48:49;99016.34;;;11.57;62.05
60170;BME280;46042;49.444;6.862;2023-03-20T14:51:36;99007.16;;;12.04;63.17
60170;BME280;46042;49.444;6.862;2023-03-20T14:54:28;99000.78;;;12.60;62.13
60170;BME280;46042;49.444;6.862;2023-03-20T14:57:08;99012.75;;;12.79;63.81
60170;BME280;46042;49.444;6.862;2023-03-20T14:59:35;99004.50;;;12.71;61.37
60170;BME280;46042;49.444;6.862;2023-03-20T15:02:03;98995.38;;;12.49;63.87
60170;BME280;46042;49.444;6.862;2023-03-20T15:04:34;99012.44;;;12.04;62.01
60170;BME280;46042;49.444;6.862;2023-03-20T15:07:13;99010.28;;;11.42;63.91
60170;BME280;46042;49.444;6.862;2023-03-20T15:09:43;98999.38;;;11.61;64.29
60170;BME280;46042;49.444;6.862;2023-03-20T15:12:14;98998.28;;;11.50;62.21
60170;BME280;46042;49.444;6.862;2023-03-20T15:14:54;99001.41;;;11.43;62.71
60170;BME280;46042;49.444;6.862;2023-03-20T15:17:25;99002.81;;;10.92;61.00
60170;BME280;46042;49.444;6.862;2023-03-20T15:20:02;99003.16;;;11.00;63.11
60170;BME280;46042;49.444;6.862;2023-03-20T15:22:29;99004.22;;;10.83;62.53
60170;BME280;46042;49.444;6.862;2023-03-20T15:24:56;99001.28;;;10.73;64.02
60170;BME280;46042;49.444;6.862;2023-03-20T15:27:25;98998.25;;;10.65;64.16
60170;BME280;46042;49.444;6.862;2023-03-20T15:29:56;98995.25;;;10.86;65.78
60170;BME280;46042;49.444;6.862;2023-03-20T15:32:23;98997.72;;;10.89;64.38
60170;BME280;46042;49.444;6.862;2023-03-20T15:34:50;98995.72;;;10.92;65.33
60170;BME280;46042;49.444;6.862;2023-03-20T15:37:21;98994.88;;;11.06;66.45
60170;BME280;46042;49.444;6.862;2023-03-20T15:39:53;98997.88;;;11.00;64.84
60170;BME280;46042;49.444;6.862;2023-03-20T15:42:24;98999.50;;;11.03;64.90